Time;durP1;ratioP1;P1;durP2;ratioP2;P2;SDS_P1;SDS_P2;PMS_P1;PMS_P2;Temp;Humidity;BMP_temperature;BMP_pressure;BME280_temperature;BME280_humidity;BME280_pressure;Samples;Min_cycle;Max_cycle;Signal;HPM_P1;HPM_P2
2022/03/09 00:01:42;;;;;;;3.67;2.60;;;;;;;22.23;nan;99628.81;5110055;28;20047;-57
2022/03/09 00:04:08;;;;;;;3.15;2.33;;;;;;;22.22;nan;99621.66;5110009;28;20055;-57
2022/03/09 00:06:33;;;;;;;3.20;2.30;;;;;;;22.23;nan;99632.41;5110248;28;20127;-57
2022/03/09 00:08:59;;;;;;;2.88;2.10;;;;;;;22.24;nan;99633.19;5110185;28;20040;-57
2022/03/09 00:11:25;;;;;;;3.63;2.42;;;;;;;22.23;nan;99632.41;5110080;28;20062;-57
2022/03/09 00:13:51;;;;;;;2.85;2.08;;;;;;;22.22;nan;99638.38;5110113;28;20430;-58
2022/03/09 00:16:17;;;;;;;3.50;2.55;;;;;;;22.21;nan;99637.53;5109828;28;20039;-57
2022/03/09 00:18:42;;;;;;;3.15;2.20;;;;;;;22.20;nan;99635.94;5109937;28;20122;-57
2022/03/09 00:21:08;;;;;;;3.45;2.42;;;;;;;22.21;nan;99637.53;5108893;28;20126;-57
2022/03/09 00:23:33;;;;;;;3.15;2.30;;;;;;;22.21;nan;99636.72;5109836;28;20047;-57
2022/03/09 00:25:59;;;;;;;3.65;2.78;;;;;;;22.21;nan;99636.72;5110115;28;20078;-58
2022/03/09 00:28:25;;;;;;;3.15;2.50;;;;;;;22.17;nan;99639.50;5110149;28;20396;-57
2022/03/09 00:30:50;;;;;;;3.25;2.42;;;;;;;22.22;nan;99641.16;5109984;28;20051;-57
2022/03/09 00:33:16;;;;;;;3.55;2.55;;;;;;;22.20;nan;99643.50;5109931;28;20043;-57
2022/03/09 00:35:43;;;;;;;3.38;2.47;;;;;;;22.20;nan;99655.44;5109717;28;20454;-57
2022/03/09 00:38:09;;;;;;;3.33;2.45;;;;;;;22.21;nan;99659.03;5109727;28;20058;-57
2022/03/09 00:40:35;;;;;;;3.53;2.63;;;;;;;22.18;nan;99651.44;5109819;28;20071;-57
2022/03/09 00:43:00;;;;;;;3.58;2.40;;;;;;;22.20;nan;99660.22;5109636;28;20099;-57
2022/03/09 00:45:26;;;;;;;3.88;2.60;;;;;;;22.21;nan;99659.03;5109752;28;20040;-57
2022/03/09 00:47:51;;;;;;;3.47;2.40;;;;;;;22.21;nan;99653.44;5109787;28;20065;-57
2022/03/09 00:50:17;;;;;;;3.53;2.70;;;;;;;22.19;nan;99655.81;5109741;28;20467;-57
2022/03/09 00:52:42;;;;;;;3.53;2.30;;;;;;;22.20;nan;99669.38;5109324;28;20122;-57
2022/03/09 00:55:08;;;;;;;4.15;2.67;;;;;;;22.20;nan;99663.00;5109695;28;20136;-57
2022/03/09 00:57:34;;;;;;;3.75;2.67;;;;;;;22.18;nan;99668.16;5109547;28;20043;-57
2022/03/09 00:59:59;;;;;;;4.03;3.00;;;;;;;22.19;nan;99672.53;5109389;28;21026;-58
2022/03/09 01:02:25;;;;;;;3.55;2.67;;;;;;;22.20;nan;99672.16;5109587;28;20073;-57
2022/03/09 01:04:51;;;;;;;3.67;2.40;;;;;;;22.18;nan;99677.31;5109454;28;20040;-57
2022/03/09 01:07:16;;;;;;;3.42;2.65;;;;;;;22.20;nan;99669.38;5109366;28;20055;-57
2022/03/09 01:09:42;;;;;;;3.58;2.50;;;;;;;22.16;nan;99671.31;5109343;28;20138;-56
2022/03/09 01:12:08;;;;;;;3.30;2.50;;;;;;;22.18;nan;99671.75;5089349;28;20068;-57
2022/03/09 01:14:33;;;;;;;4.18;2.83;;;;;;;22.18;nan;99676.50;5109276;28;20059;-57
2022/03/09 01:16:59;;;;;;;4.20;2.88;;;;;;;22.18;nan;99673.72;5109251;28;20116;-57
2022/03/09 01:19:24;;;;;;;4.03;3.10;;;;;;;22.18;nan;99670.94;5109383;28;20047;-56
2022/03/09 01:21:49;;;;;;;4.05;2.83;;;;;;;22.16;nan;99667.72;5109350;28;20048;-58
2022/03/09 01:24:15;;;;;;;3.70;2.70;;;;;;;22.17;nan;99674.91;5109355;28;20415;-57
2022/03/09 01:26:40;;;;;;;4.13;2.88;;;;;;;22.17;nan;99674.91;5109269;28;20411;-57
2022/03/09 01:29:09;;;;;;;3.80;2.97;;;;;;;22.17;nan;99681.28;5109206;28;20088;-57
2022/03/09 01:31:35;;;;;;;4.20;3.20;;;;;;;22.15;nan;99675.28;5108538;28;20055;-57
2022/03/09 01:34:01;;;;;;;4.30;3.33;;;;;;;22.12;nan;99675.22;5112292;28;20051;-57
2022/03/09 01:36:27;;;;;;;3.92;3.00;;;;;;;22.14;nan;99676.44;5111593;28;20044;-57
2022/03/09 01:38:52;;;;;;;4.22;3.22;;;;;;;22.15;nan;99680.06;5090890;28;20047;-57
2022/03/09 01:41:18;;;;;;;4.13;3.13;;;;;;;22.15;nan;99677.28;5092128;28;20056;-57
2022/03/09 01:43:43;;;;;;;3.55;2.85;;;;;;;22.15;nan;99677.28;5092058;28;20398;-57
2022/03/09 01:46:08;;;;;;;4.50;3.30;;;;;;;22.15;nan;99682.84;5092135;28;20630;-57
2022/03/09 01:48:34;;;;;;;3.83;2.90;;;;;;;22.16;nan;99681.66;5090558;28;20200;-57
2022/03/09 01:50:59;;;;;;;3.80;2.88;;;;;;;22.14;nan;99682.03;5092037;28;20499;-57
2022/03/09 01:53:26;;;;;;;3.75;2.88;;;;;;;22.15;nan;99678.06;5092026;28;20066;-57
2022/03/09 01:55:51;;;;;;;3.70;2.80;;;;;;;22.13;nan;99679.63;5091855;28;20222;-57
2022/03/09 01:58:17;;;;;;;3.78;2.88;;;;;;;22.12;nan;99673.25;5091659;28;20063;-57
2022/03/09 02:00:42;;;;;;;4.70;3.35;;;;;;;22.13;nan;99686.00;5091805;28;20416;-58
2022/03/09 02:03:08;;;;;;;4.05;2.97;;;;;;;22.14;nan;99686.78;5091876;28;20043;-57
2022/03/09 02:05:35;;;;;;;3.85;2.95;;;;;;;22.14;nan;99687.59;5091581;28;20036;-57
2022/03/09 02:10:45;;;;;;;3.85;2.80;;;;;;;22.12;nan;99691.94;5091745;28;20581;-59
2022/03/09 02:13:10;;;;;;;3.90;2.90;;;;;;;22.12;nan;99689.16;5091812;28;20032;-57
2022/03/09 02:15:36;;;;;;;4.18;2.90;;;;;;;22.12;nan;99691.94;5073187;28;20047;-57
2022/03/09 02:18:02;;;;;;;4.35;3.20;;;;;;;22.11;nan;99693.13;5091600;28;20042;-57
2022/03/09 02:20:28;;;;;;;4.07;2.95;;;;;;;22.12;nan;99694.72;5091624;28;20051;-57
2022/03/09 02:22:54;;;;;;;3.63;2.92;;;;;;;22.11;nan;99693.94;5072872;28;20036;-57
2022/03/09 02:25:20;;;;;;;3.50;2.65;;;;;;;22.11;nan;99693.13;5091650;28;20047;-57
2022/03/09 02:27:46;;;;;;;3.83;3.08;;;;;;;22.09;nan;99701.88;5091551;28;20052;-58
2022/03/09 02:30:17;;;;;;;3.75;2.70;;;;;;;22.09;nan;99715.00;5091516;28;20044;-57
2022/03/09 02:32:48;;;;;;;3.60;2.72;;;;;;;22.10;nan;99702.66;5091456;28;20040;-57
2022/03/09 02:35:16;;;;;;;4.00;3.13;;;;;;;22.10;nan;99699.88;5091614;28;20106;-58
2022/03/09 02:37:41;;;;;;;3.85;2.95;;;;;;;22.09;nan;99698.28;5091345;28;20052;-57
2022/03/09 02:40:09;;;;;;;3.97;2.78;;;;;;;22.08;nan;99693.88;5091339;28;20089;-57
2022/03/09 02:42:34;;;;;;;4.15;3.30;;;;;;;22.11;nan;99698.69;5091200;28;20048;-57
2022/03/09 02:45:00;;;;;;;4.55;3.50;;;;;;;22.10;nan;99699.88;5090671;28;20044;-58
2022/03/09 02:47:26;;;;;;;3.78;3.10;;;;;;;22.09;nan;99692.72;5091321;28;20040;-57
2022/03/09 02:49:51;;;;;;;4.03;3.20;;;;;;;22.09;nan;99695.50;5091091;28;20055;-57
2022/03/09 02:52:16;;;;;;;4.35;3.25;;;;;;;22.10;nan;99695.13;5091124;28;20040;-57
2022/03/09 02:54:42;;;;;;;4.82;3.70;;;;;;;22.10;nan;99697.09;5091389;28;20048;-57
2022/03/09 02:57:07;;;;;;;4.63;3.58;;;;;;;22.10;nan;99685.94;5091104;28;20074;-57
2022/03/09 02:59:35;;;;;;;3.80;2.90;;;;;;;22.09;nan;99695.50;5091086;28;20138;-57
2022/03/09 03:02:01;;;;;;;4.40;3.35;;;;;;;22.07;nan;99687.47;5090998;28;20036;-57
2022/03/09 03:04:26;;;;;;;5.03;3.80;;;;;;;22.09;nan;99696.28;5090934;28;20052;-57
2022/03/09 03:06:52;;;;;;;4.72;3.35;;;;;;;22.08;nan;99683.56;5090980;28;20044;-57
2022/03/09 03:09:17;;;;;;;4.22;3.30;;;;;;;22.06;nan;99679.50;5091016;28;20131;-57
2022/03/09 03:11:42;;;;;;;4.75;3.63;;;;;;;22.08;nan;99679.94;5090943;28;20063;-57
2022/03/09 03:14:08;;;;;;;4.95;3.70;;;;;;;22.07;nan;99681.88;5090902;28;20123;-57
2022/03/09 03:16:34;;;;;;;4.60;3.28;;;;;;;22.05;nan;99683.47;5090889;28;20048;-56
2022/03/09 03:18:59;;;;;;;4.55;3.50;;;;;;;22.07;nan;99686.66;5090674;28;20762;-57
2022/03/09 03:21:24;;;;;;;4.00;3.30;;;;;;;22.06;nan;99682.28;5090907;28;20047;-57
2022/03/09 03:23:50;;;;;;;4.35;3.40;;;;;;;22.05;nan;99681.47;5090759;28;20428;-58
2022/03/09 03:26:15;;;;;;;4.70;3.55;;;;;;;22.07;nan;99686.66;5090712;28;20404;-57
2022/03/09 03:28:41;;;;;;;4.60;3.75;;;;;;;22.04;nan;99693.00;5090594;28;20040;-57
2022/03/09 03:31:06;;;;;;;4.63;3.50;;;;;;;22.04;nan;99698.56;5090556;28;20043;-57
2022/03/09 03:33:32;;;;;;;4.10;3.20;;;;;;;22.05;nan;99700.16;5090437;28;20406;-57
2022/03/09 03:35:57;;;;;;;4.18;3.30;;;;;;;22.04;nan;99701.34;5090331;28;20075;-57
2022/03/09 03:38:23;;;;;;;4.68;3.53;;;;;;;22.04;nan;99709.72;5090543;28;20482;-57
2022/03/09 03:40:48;;;;;;;4.70;3.25;;;;;;;22.03;nan;99699.75;5090360;28;20044;-57
2022/03/09 03:43:14;;;;;;;4.75;3.40;;;;;;;22.04;nan;99713.28;5090449;28;20085;-57
2022/03/09 03:45:39;;;;;;;4.70;3.70;;;;;;;22.03;nan;99711.69;5090283;28;20050;-57
2022/03/09 03:48:05;;;;;;;4.18;3.10;;;;;;;22.04;nan;99712.50;5090403;28;20059;-57
2022/03/09 03:50:31;;;;;;;4.38;3.33;;;;;;;22.03;nan;99717.25;5090237;28;20075;-57
2022/03/09 03:52:56;;;;;;;4.72;3.40;;;;;;;22.03;nan;99714.47;5090087;28;20508;-57
2022/03/09 03:55:22;;;;;;;4.70;3.20;;;;;;;22.03;nan;99714.47;5089023;28;20042;-57
2022/03/09 03:57:47;;;;;;;4.72;3.70;;;;;;;21.97;nan;99711.22;5089921;28;20055;-57
2022/03/09 04:00:13;;;;;;;4.10;3.20;;;;;;;22.03;nan;99724.81;5090180;28;20072;-57
2022/03/09 04:02:39;;;;;;;4.50;3.70;;;;;;;22.02;nan;99720.44;5089783;28;20064;-57
2022/03/09 04:05:08;;;;;;;4.90;3.65;;;;;;;22.00;nan;99715.22;5073457;28;20053;-57
2022/03/09 04:07:33;;;;;;;4.53;3.47;;;;;;;22.01;nan;99716.03;5069772;28;20067;-57
2022/03/09 04:09:59;;;;;;;4.18;3.10;;;;;;;22.02;nan;99723.22;5069564;28;20052;-57
2022/03/09 04:12:25;;;;;;;4.13;3.08;;;;;;;22.07;nan;99722.88;5069490;28;20044;-57
2022/03/09 04:14:51;;;;;;;4.30;3.20;;;;;;;22.68;nan;99722.53;5069333;28;20044;-58
2022/03/09 04:17:16;;;;;;;4.25;3.42;;;;;;;23.43;nan;99728.94;5069468;28;20075;-57
2022/03/09 04:19:42;;;;;;;4.20;3.25;;;;;;;23.37;nan;99726.91;5069635;28;20124;-57
2022/03/09 04:22:07;;;;;;;4.10;3.28;;;;;;;23.18;nan;99727.91;5069639;28;20075;-57
2022/03/09 04:24:32;;;;;;;4.00;3.25;;;;;;;22.96;nan;99733.25;5050305;28;20041;-57
2022/03/09 04:26:58;;;;;;;4.03;3.10;;;;;;;22.76;nan;99732.59;5069279;28;20045;-57
2022/03/09 04:29:23;;;;;;;5.35;3.38;;;;;;;22.65;nan;99737.25;5069386;28;20044;-58
2022/03/09 04:31:49;;;;;;;4.90;3.50;;;;;;;22.52;nan;99733.91;5069473;28;20044;-57
2022/03/09 04:34:14;;;;;;;4.55;3.50;;;;;;;22.46;nan;99746.56;5069428;28;20048;-57
2022/03/09 04:36:40;;;;;;;4.82;3.55;;;;;;;22.39;nan;99743.66;5069225;28;20082;-57
2022/03/09 04:39:06;;;;;;;4.50;3.47;;;;;;;22.33;nan;99744.38;5069247;28;20051;-57
2022/03/09 04:41:32;;;;;;;3.90;3.15;;;;;;;22.28;nan;99748.28;5069175;28;20068;-58
2022/03/09 04:43:57;;;;;;;4.22;3.33;;;;;;;22.23;nan;99743.06;5069267;28;20041;-57
2022/03/09 04:46:23;;;;;;;4.78;3.63;;;;;;;22.21;nan;99751.78;5069050;28;20048;-57
2022/03/09 04:48:49;;;;;;;4.68;3.60;;;;;;;22.19;nan;99753.34;5069234;28;20142;-57
2022/03/09 04:51:15;;;;;;;3.95;3.30;;;;;;;22.17;nan;99741.78;5069133;28;20130;-57
2022/03/09 04:53:41;;;;;;;4.55;3.58;;;;;;;22.15;nan;99746.94;5069067;28;20119;-57
2022/03/09 04:56:06;;;;;;;4.35;3.50;;;;;;;22.15;nan;99744.13;5069102;28;20190;-57
2022/03/09 04:58:32;;;;;;;4.88;3.60;;;;;;;22.14;nan;99743.31;5068938;28;20048;-57
2022/03/09 05:00:57;;;;;;;4.72;3.80;;;;;;;22.09;nan;99746.44;5069010;28;20041;-57
2022/03/09 05:03:23;;;;;;;4.72;3.53;;;;;;;22.10;nan;99752.81;5068878;28;20044;-57
2022/03/09 05:05:48;;;;;;;5.32;4.13;;;;;;;22.09;nan;99754.78;5069120;28;20419;-57
2022/03/09 05:08:14;;;;;;;4.50;3.58;;;;;;;22.06;nan;99749.94;5071453;28;20475;-57
2022/03/09 05:10:39;;;;;;;4.90;3.85;;;;;;;22.06;nan;99749.13;5072283;28;20476;-57
2022/03/09 05:13:05;;;;;;;5.15;3.60;;;;;;;22.06;nan;99749.13;5072465;28;20041;-57
2022/03/09 05:15:31;;;;;;;4.82;3.72;;;;;;;22.06;nan;99751.91;5072132;28;20063;-57
2022/03/09 05:17:56;;;;;;;4.45;3.40;;;;;;;22.05;nan;99750.31;5072123;28;20119;-57
2022/03/09 05:20:22;;;;;;;5.00;4.03;;;;;;;22.04;nan;99751.50;5072127;28;20059;-57
2022/03/09 05:22:48;;;;;;;4.13;3.33;;;;;;;22.04;nan;99749.50;5072327;28;20148;-57
2022/03/09 05:25:14;;;;;;;4.43;3.47;;;;;;;22.03;nan;99752.69;5072170;28;20113;-57
2022/03/09 05:27:40;;;;;;;4.63;3.28;;;;;;;22.02;nan;99765.00;5072128;28;20048;-57
2022/03/09 05:30:06;;;;;;;4.82;3.90;;;;;;;22.01;nan;99760.59;5071901;28;20106;-57
2022/03/09 05:32:32;;;;;;;4.75;3.65;;;;;;;22.01;nan;99769.78;5072172;28;20078;-57
2022/03/09 05:34:57;;;;;;;4.57;3.42;;;;;;;21.99;nan;99770.13;5072119;28;20068;-57
2022/03/09 05:37:23;;;;;;;4.60;3.80;;;;;;;22.01;nan;99777.31;5072048;28;20443;-57
2022/03/09 05:39:49;;;;;;;4.97;3.70;;;;;;;21.98;nan;99774.09;5072045;28;20095;-57
2022/03/09 05:42:14;;;;;;;4.47;3.58;;;;;;;21.99;nan;99775.69;5071893;28;20417;-58
2022/03/09 05:44:40;;;;;;;4.88;3.90;;;;;;;21.99;nan;99777.66;5072056;28;20086;-58
2022/03/09 05:47:06;;;;;;;4.72;3.60;;;;;;;22.01;nan;99785.69;5071800;28;20041;-57
2022/03/09 05:49:31;;;;;;;5.10;3.78;;;;;;;21.98;nan;99785.22;5071640;28;20056;-57
2022/03/09 05:51:57;;;;;;;5.45;3.97;;;;;;;21.99;nan;99780.47;5071810;28;20076;-57
2022/03/09 05:54:22;;;;;;;4.82;4.00;;;;;;;21.97;nan;99780.84;5072019;28;20083;-57
2022/03/09 05:56:48;;;;;;;4.65;3.83;;;;;;;21.97;nan;99775.28;5071832;28;20127;-57
2022/03/09 05:59:13;;;;;;;4.75;3.75;;;;;;;21.99;nan;99780.47;5071654;28;20412;-57
2022/03/09 06:01:39;;;;;;;5.05;4.05;;;;;;;21.98;nan;99788.00;5071683;28;20119;-57
2022/03/09 06:04:05;;;;;;;4.38;3.50;;;;;;;21.98;nan;99790.78;5071362;28;20048;-57
2022/03/09 06:06:31;;;;;;;4.60;3.78;;;;;;;21.96;nan;99784.81;5071507;28;20044;-57
2022/03/09 06:08:57;;;;;;;5.32;3.70;;;;;;;21.94;nan;99792.75;5071596;28;20116;-57
2022/03/09 06:11:23;;;;;;;5.35;3.90;;;;;;;21.98;nan;99792.78;5071377;28;20109;-57
2022/03/09 06:13:48;;;;;;;5.18;3.95;;;;;;;21.99;nan;99800.75;5071526;28;20048;-57
2022/03/09 06:16:14;;;;;;;4.63;3.60;;;;;;;21.98;nan;99798.34;5071410;28;20044;-58
2022/03/09 06:18:40;;;;;;;4.68;3.67;;;;;;;21.98;nan;99793.59;5070270;28;20053;-57
2022/03/09 06:21:05;;;;;;;4.63;3.55;;;;;;;21.99;nan;99800.75;5071368;28;20131;-57
2022/03/09 06:23:31;;;;;;;4.88;3.70;;;;;;;21.99;nan;99808.31;5071315;28;20278;-59
2022/03/09 06:25:56;;;;;;;5.07;3.83;;;;;;;22.00;nan;99804.34;5071561;28;20087;-57
2022/03/09 06:28:22;;;;;;;4.55;3.80;;;;;;;21.99;nan;99806.31;5071249;28;20041;-57
2022/03/09 06:30:47;;;;;;;4.93;3.72;;;;;;;21.97;nan;99799.53;5071086;28;20079;-57
2022/03/09 06:33:13;;;;;;;4.45;3.40;;;;;;;21.99;nan;99811.91;5071385;28;20400;-57
2022/03/09 06:35:38;;;;;;;5.57;4.15;;;;;;;21.96;nan;99798.72;5071183;28;20049;-57
2022/03/09 06:38:04;;;;;;;4.85;3.92;;;;;;;22.01;nan;99811.56;5071002;28;20047;-57
2022/03/09 06:40:30;;;;;;;4.80;3.83;;;;;;;22.01;nan;99808.75;5071052;28;20052;-56
2022/03/09 06:42:55;;;;;;;5.18;3.83;;;;;;;21.99;nan;99811.91;5070833;28;20036;-57
2022/03/09 06:45:21;;;;;;;4.60;3.63;;;;;;;21.99;nan;99809.13;5070685;28;20044;-57
2022/03/09 06:47:46;;;;;;;4.55;3.47;;;;;;;22.01;nan;99813.53;5070876;28;20036;-56
2022/03/09 06:50:12;;;;;;;4.95;4.10;;;;;;;21.98;nan;99806.72;5070689;28;20037;-57
2022/03/09 06:52:38;;;;;;;4.95;3.90;;;;;;;21.99;nan;99814.69;5070909;28;20040;-57
2022/03/09 06:55:07;;;;;;;5.00;3.38;;;;;;;22.00;nan;99823.84;5070896;28;20095;-58
2022/03/09 06:57:33;;;;;;;4.68;3.50;;;;;;;22.03;nan;99819.53;5070568;28;20052;-57
2022/03/09 06:59:59;;;;;;;5.10;3.72;;;;;;;22.02;nan;99829.88;5070375;28;20036;-56
2022/03/09 07:02:25;;;;;;;7.13;3.65;;;;;;;22.04;nan;99835.06;5070379;28;20048;-57
2022/03/09 07:04:51;;;;;;;5.13;4.07;;;;;;;22.05;nan;99836.66;5070713;28;20098;-57
2022/03/09 07:07:16;;;;;;;4.57;3.70;;;;;;;22.05;nan;99834.69;5070533;28;20075;-57
2022/03/09 07:09:41;;;;;;;4.97;3.60;;;;;;;22.03;nan;99836.25;5070610;28;20071;-57
2022/03/09 07:12:08;;;;;;;4.60;3.88;;;;;;;22.04;nan;99840.63;5070527;28;20045;-58
2022/03/09 07:14:34;;;;;;;5.28;3.88;;;;;;;22.03;nan;99839.03;5070456;28;20037;-57
2022/03/09 07:16:59;;;;;;;5.63;3.70;;;;;;;22.02;nan;99845.78;5070235;28;20042;-56
2022/03/09 07:19:24;;;;;;;6.95;4.20;;;;;;;22.04;nan;99848.97;5069898;28;20045;-57
2022/03/09 07:21:50;;;;;;;5.82;4.18;;;;;;;22.04;nan;99851.78;5070462;28;20047;-57
2022/03/09 07:24:15;;;;;;;5.25;3.83;;;;;;;22.02;nan;99852.16;5070445;28;20059;-57
2022/03/09 07:26:42;;;;;;;4.80;3.92;;;;;;;22.03;nan;99850.97;5070280;28;20044;-57
2022/03/09 07:29:11;;;;;;;5.07;3.85;;;;;;;22.02;nan;99849.38;5070366;28;20037;-57
2022/03/09 07:31:36;;;;;;;5.20;4.00;;;;;;;22.04;nan;99844.22;5069978;28;20086;-57
2022/03/09 07:34:02;;;;;;;5.35;3.85;;;;;;;22.02;nan;99848.56;5070250;28;20524;-57
2022/03/09 07:36:27;;;;;;;6.38;4.18;;;;;;;22.04;nan;99854.56;5051059;28;20041;-57
2022/03/09 07:38:53;;;;;;;5.35;4.40;;;;;;;22.02;nan;99849.38;5070153;28;20037;-57
2022/03/09 07:41:18;;;;;;;5.15;3.80;;;;;;;22.05;nan;99861.72;5069994;28;20412;-58
2022/03/09 07:43:44;;;;;;;6.95;4.38;;;;;;;22.04;nan;99851.78;5070071;28;20040;-57
2022/03/09 07:46:09;;;;;;;5.60;3.72;;;;;;;22.05;nan;99862.53;5069993;28;20044;-57
2022/03/09 07:48:35;;;;;;;4.63;3.72;;;;;;;22.04;nan;99860.13;5069985;28;20094;-57
2022/03/09 07:51:00;;;;;;;5.28;3.95;;;;;;;22.06;nan;99864.13;5069796;28;20067;-56
2022/03/09 07:53:26;;;;;;;4.85;4.07;;;;;;;22.06;nan;99860.56;5069785;28;20432;-57
2022/03/09 07:55:51;;;;;;;5.80;4.40;;;;;;;22.07;nan;99865.75;5073399;28;20043;-57
2022/03/09 07:58:17;;;;;;;5.20;4.20;;;;;;;22.04;nan;99863.72;5069360;28;20048;-57
2022/03/09 08:00:42;;;;;;;5.93;4.28;;;;;;;22.08;nan;99867.41;5080191;28;20052;-57
2022/03/09 08:03:08;;;;;;;5.13;3.95;;;;;;;22.10;nan;99867.84;5075683;28;20079;-57
2022/03/09 08:05:34;;;;;;;6.72;3.83;;;;;;;22.13;nan;99869.06;5073387;28;20040;-57
2022/03/09 08:07:59;;;;;;;5.68;3.95;;;;;;;22.19;nan;99867.56;5076237;28;20393;-56
2022/03/09 08:10:26;;;;;;;8.45;4.50;;;;;;;22.20;nan;99863.59;5075765;28;20522;-52
2022/03/09 08:12:51;;;;;;;5.05;4.10;;;;;;;22.18;nan;99860.41;5069895;28;20109;-58
2022/03/09 08:15:17;;;;;;;7.53;4.40;;;;;;;22.18;nan;99863.97;5070269;28;20041;-58
2022/03/09 08:17:42;;;;;;;6.43;4.20;;;;;;;22.14;nan;99863.09;5055904;28;20036;-57
2022/03/09 08:20:08;;;;;;;5.80;4.50;;;;;;;22.15;nan;99866.72;5073230;28;20043;-57
2022/03/09 08:22:33;;;;;;;7.05;4.28;;;;;;;22.18;nan;99868.75;5077093;28;20508;-58
2022/03/09 08:24:59;;;;;;;6.28;4.20;;;;;;;22.19;nan;99873.94;5075333;28;20038;-57
2022/03/09 08:27:24;;;;;;;7.35;4.05;;;;;;;22.20;nan;99869.97;5068375;28;20064;-58
2022/03/09 08:29:51;;;;;;;5.53;3.90;;;;;;;22.21;nan;99871.59;5071611;28;20057;-57
2022/03/09 08:32:20;;;;;;;8.48;4.40;;;;;;;22.22;nan;99867.66;5072288;28;20059;-58
2022/03/09 08:34:46;;;;;;;5.72;4.45;;;;;;;22.25;nan;99850.16;5079216;28;20083;-59
2022/03/09 08:37:11;;;;;;;5.90;4.18;;;;;;;22.28;nan;99856.97;5071894;28;20123;-57
2022/03/09 08:39:37;;;;;;;5.28;4.18;;;;;;;22.28;nan;99856.97;5075886;28;20133;-56
2022/03/09 08:42:03;;;;;;;6.15;4.18;;;;;;;22.29;nan;99850.25;5075750;28;20408;-58
2022/03/09 08:44:28;;;;;;;5.38;4.20;;;;;;;22.28;nan;99842.22;5076436;28;20122;-57
2022/03/09 08:46:53;;;;;;;7.10;3.88;;;;;;;22.30;nan;99851.03;5068765;28;20427;-57
2022/03/09 08:49:19;;;;;;;5.22;3.80;;;;;;;22.29;nan;99843.84;5072428;28;20118;-57
2022/03/09 08:51:45;;;;;;;5.28;3.92;;;;;;;22.30;nan;99842.69;5076371;28;20145;-57
2022/03/09 08:54:10;;;;;;;5.75;4.20;;;;;;;22.27;nan;99829.47;5073605;28;20120;-56
2022/03/09 08:56:36;;;;;;;6.80;4.15;;;;;;;22.30;nan;99837.91;5077061;28;20040;-57
2022/03/09 08:59:02;;;;;;;6.30;3.72;;;;;;;22.33;nan;99828.78;5049704;28;20093;-58
2022/03/09 09:01:28;;;;;;;10.23;5.97;;;;;;;22.36;nan;99827.22;5074003;28;20043;-52
2022/03/09 09:03:53;;;;;;;8.82;6.28;;;;;;;22.35;nan;99820.84;5076238;28;20119;-54
2022/03/09 09:06:19;;;;;;;8.27;6.35;;;;;;;22.34;nan;99824.81;5081320;28;20032;-55
2022/03/09 09:08:44;;;;;;;9.93;5.65;;;;;;;22.33;nan;99827.97;5077605;28;20420;-54
2022/03/09 09:11:10;;;;;;;7.72;5.30;;;;;;;22.32;nan;99826.38;5074860;28;20103;-57
2022/03/09 09:13:35;;;;;;;7.30;4.85;;;;;;;22.33;nan;99816.84;5076801;28;20044;-58
2022/03/09 09:16:01;;;;;;;7.93;4.90;;;;;;;22.33;nan;99811.25;5081217;28;20495;-57
2022/03/09 09:18:26;;;;;;;7.95;4.65;;;;;;;22.33;nan;99805.69;5076360;28;20048;-57
2022/03/09 09:20:53;;;;;;;9.43;4.65;;;;;;;22.34;nan;99807.28;5077509;28;20049;-56
2022/03/09 09:23:20;;;;;;;8.40;4.80;;;;;;;22.29;nan;99810.38;5084747;28;20044;-57
2022/03/09 09:25:47;;;;;;;5.30;4.10;;;;;;;22.27;nan;99802.41;5071324;28;20044;-57
2022/03/09 09:28:13;;;;;;;5.53;4.18;;;;;;;22.26;nan;99800.81;5072125;28;20573;-56
2022/03/09 09:30:39;;;;;;;10.50;3.90;;;;;;;22.24;nan;99803.19;5069404;28;20095;-58
2022/03/09 09:33:04;;;;;;;5.88;4.28;;;;;;;22.25;nan;99796.41;5074721;28;20049;-57
2022/03/09 09:35:30;;;;;;;5.80;4.03;;;;;;;22.26;nan;99792.44;5074450;28;20052;-55
2022/03/09 09:37:56;;;;;;;6.45;3.97;;;;;;;22.25;nan;99790.84;5094929;28;20059;-58
2022/03/09 09:40:21;;;;;;;5.57;3.88;;;;;;;22.24;nan;99784.47;5105030;28;20122;-57
2022/03/09 09:42:46;;;;;;;5.25;3.80;;;;;;;22.26;nan;99789.66;5107568;28;20058;-57
2022/03/09 09:45:12;;;;;;;5.47;3.88;;;;;;;22.28;nan;99786.50;5105824;28;20043;-57
2022/03/09 09:47:38;;;;;;;6.20;4.32;;;;;;;22.27;nan;99780.13;5083209;28;20048;-56
2022/03/09 09:50:06;;;;;;;5.13;3.95;;;;;;;22.28;nan;99781.72;5098156;28;20141;-57
2022/03/09 09:52:33;;;;;;;8.75;3.90;;;;;;;22.28;nan;99784.50;5102898;28;20043;-57
2022/03/09 09:55:00;;;;;;;4.40;3.30;;;;;;;22.30;nan;99779.38;5104539;28;20506;-57
2022/03/09 09:57:30;;;;;;;4.75;3.42;;;;;;;22.29;nan;99777.78;5102057;28;20048;-57
2022/03/09 09:59:57;;;;;;;5.22;3.45;;;;;;;22.31;nan;99775.41;5101891;28;20039;-56
2022/03/09 10:02:23;;;;;;;5.90;3.70;;;;;;;22.30;nan;99779.38;5103652;28;20048;-57
2022/03/09 10:04:50;;;;;;;5.57;3.55;;;;;;;22.30;nan;99765.44;5108685;28;20042;-57
2022/03/09 10:07:16;;;;;;;6.22;3.55;;;;;;;22.30;nan;99767.44;5101310;28;20116;-56
2022/03/09 10:09:42;;;;;;;4.80;3.42;;;;;;;22.31;nan;99769.84;5091626;28;20043;-56
2022/03/09 10:12:09;;;;;;;4.88;3.40;;;;;;;22.31;nan;99764.28;5089723;28;20048;-53
2022/03/09 10:14:52;;;;;;;4.60;3.33;;;;;;;22.33;nan;99769.47;5099253;28;20062;-56
2022/03/09 10:17:18;;;;;;;;;;;;;;;22.37;nan;99767.53;5103601;28;20176;-56
2022/03/09 10:19:50;;;;;;;4.55;3.50;;;;;;;22.38;nan;99756.00;5108696;28;19961;-57
2022/03/09 10:22:23;;;;;;;4.47;3.50;;;;;;;22.35;nan;99751.16;5106915;28;20039;-57
2022/03/09 10:24:49;;;;;;;4.70;3.40;;;;;;;22.33;nan;99742.38;5107792;28;20035;-57
2022/03/09 10:27:48;;;;;;;5.03;3.60;;;;;;;22.36;nan;99740.81;5105718;28;20039;-58
2022/03/09 10:30:18;;;;;;;7.85;3.20;;;;;;;22.37;nan;99745.25;5101284;28;20603;-57
2022/03/09 10:32:53;;;;;;;4.75;3.45;;;;;;;22.39;nan;99742.88;5105738;28;20032;-54
2022/03/09 10:35:27;;;;;;;4.85;3.17;;;;;;;22.37;nan;99740.47;5095260;28;20135;-55
2022/03/09 10:37:52;;;;;;;6.13;3.67;;;;;;;22.34;nan;99746.78;5107373;28;20423;-56
2022/03/09 10:40:20;;;;;;;4.78;3.17;;;;;;;22.36;nan;99743.59;5102116;28;20498;-56
2022/03/09 10:42:46;;;;;;;4.45;3.28;;;;;;;22.35;nan;99739.22;5099924;28;20069;-46
2022/03/09 10:45:14;;;;;;;5.38;3.50;;;;;;;22.33;nan;99733.22;5100795;28;20035;-55
2022/03/09 10:47:42;;;;;;;4.53;3.30;;;;;;;22.30;nan;99737.59;5098752;28;20055;-56
2022/03/09 10:50:13;;;;;;;12.25;3.63;;;;;;;22.25;nan;99730.34;5104442;28;20133;-55
2022/03/09 10:52:46;;;;;;;6.00;3.50;;;;;;;22.21;nan;99726.69;5103169;28;20522;-55
2022/03/09 10:55:31;;;;;;;;;;;;;;;22.23;nan;99729.94;5101182;28;20051;-55
2022/03/09 10:58:08;;;;;;;6.13;3.45;;;;;;;22.19;nan;99731.03;5101431;28;19924;-57
2022/03/09 11:00:37;;;;;;;7.32;3.60;;;;;;;22.15;nan;99722.66;5101440;28;20043;-58
2022/03/09 11:03:07;;;;;;;8.30;3.08;;;;;;;22.13;nan;99716.63;5101436;28;20576;-57
2022/03/09 11:05:33;;;;;;;4.47;3.10;;;;;;;22.13;nan;99716.63;5107344;28;20093;-58
2022/03/09 11:08:00;;;;;;;6.72;3.45;;;;;;;22.15;nan;99717.09;5097095;28;20088;-57
2022/03/09 11:10:26;;;;;;;5.20;3.30;;;;;;;22.16;nan;99717.88;5098987;28;20051;-61
2022/03/09 11:12:53;;;;;;;7.95;2.80;;;;;;;22.14;nan;99707.09;5109284;28;20411;-57
2022/03/09 11:15:21;;;;;;;10.95;3.38;;;;;;;22.15;nan;99702.34;5095009;28;20048;-58
2022/03/09 11:17:48;;;;;;;5.38;3.20;;;;;;;22.17;nan;99705.56;5106442;28;20051;-59
2022/03/09 11:20:17;;;;;;;6.25;3.97;;;;;;;22.17;nan;99708.34;5109540;28;20055;-58
2022/03/09 11:22:42;;;;;;;5.55;3.95;;;;;;;22.15;nan;99703.16;5102993;28;20055;-58
2022/03/09 11:25:09;;;;;;;8.88;3.75;;;;;;;22.12;nan;99701.09;5108347;28;20042;-57
2022/03/09 11:27:46;;;;;;;5.55;3.40;;;;;;;22.12;nan;99689.16;5103109;28;20082;-57
2022/03/09 11:30:26;;;;;;;6.72;3.35;;;;;;;22.12;nan;99694.72;5101968;28;20120;-57
2022/03/09 11:32:54;;;;;;;4.55;3.60;;;;;;;22.13;nan;99699.13;5103146;28;20054;-58
2022/03/09 11:35:40;;;;;;;4.82;3.05;;;;;;;22.09;nan;99690.72;5109111;28;20100;-57
2022/03/09 11:38:35;;;;;;;5.70;3.20;;;;;;;22.08;nan;99680.75;5103249;28;20059;-58
2022/03/09 11:41:12;;;;;;;5.95;3.10;;;;;;;22.09;nan;99684.34;5088462;28;20039;-58
2022/03/09 11:43:38;;;;;;;4.40;3.15;;;;;;;22.14;nan;99684.81;5101230;28;20448;-58
2022/03/09 11:46:03;;;;;;;4.07;2.80;;;;;;;22.24;nan;99683.34;5108433;28;20063;-58
2022/03/09 11:48:52;;;;;;;7.55;3.30;;;;;;;22.31;nan;99675.09;5109039;28;20039;-58
2022/03/09 11:51:19;;;;;;;15.52;11.75;;;;;;;22.35;nan;99672.34;5107533;28;20059;-57